createdAt,value
2023-06-25T00:01:06.989Z,35.70
2023-06-25T00:03:36.195Z,36.20
2023-06-25T00:06:07.183Z,36.10
2023-06-25T00:08:36.720Z,36.20
2023-06-25T00:11:07.693Z,36.50
2023-06-25T00:13:36.564Z,36.50
2023-06-25T00:16:09.976Z,36.60
2023-06-25T00:18:40.144Z,36.40
2023-06-25T00:21:11.087Z,36.40
2023-06-25T00:23:39.627Z,36.50
2023-06-25T00:26:10.628Z,36.80
2023-06-25T00:28:39.839Z,37.20
2023-06-25T00:31:13.682Z,37.70
2023-06-25T00:33:44.986Z,37.60
2023-06-25T00:36:16.602Z,37.10
2023-06-25T00:38:48.715Z,36.90
2023-06-25T00:41:20.362Z,37.40
2023-06-25T00:43:48.797Z,37.60
2023-06-25T00:46:24.159Z,37.60
2023-06-25T00:48:55.313Z,37.30
2023-06-25T00:53:59.387Z,37.40
2023-06-25T00:56:30.674Z,37.10
2023-06-25T00:59:03.200Z,37.30
2023-06-25T01:01:42.591Z,37.20
2023-06-25T01:04:20.780Z,37.20
2023-06-25T01:06:54.737Z,38.00
2023-06-25T01:09:27.494Z,37.60
2023-06-25T01:12:04.565Z,37.90
2023-06-25T01:14:35.889Z,37.90
2023-06-25T01:17:07.368Z,37.90
2023-06-25T01:19:36.927Z,38.20
2023-06-25T01:22:08.522Z,38.40
2023-06-25T01:24:39.995Z,38.70
2023-06-25T01:27:10.992Z,38.80
2023-06-25T01:29:40.204Z,38.70
2023-06-25T01:32:09.822Z,38.70
2023-06-25T01:34:38.535Z,38.80
2023-06-25T01:37:09.200Z,38.70
2023-06-25T01:39:40.705Z,38.60
2023-06-25T01:42:10.117Z,38.70
2023-06-25T01:44:40.435Z,38.50
2023-06-25T01:47:10.341Z,38.70
2023-06-25T01:49:40.163Z,38.80
2023-06-25T01:52:11.135Z,38.70
2023-06-25T01:54:41.504Z,38.90
2023-06-25T01:57:11.988Z,38.60
2023-06-25T01:59:42.131Z,38.50
2023-06-25T02:02:12.146Z,38.80
2023-06-25T02:04:40.389Z,39.40
2023-06-25T02:07:11.430Z,40.00
2023-06-25T02:09:41.738Z,39.60
2023-06-25T02:12:12.926Z,39.00
2023-06-25T02:14:43.004Z,38.90
2023-06-25T02:17:12.178Z,39.10
2023-06-25T02:19:43.146Z,39.10
2023-06-25T02:22:12.012Z,39.10
2023-06-25T02:24:44.307Z,39.00
2023-06-25T02:27:15.317Z,39.50
2023-06-25T02:29:46.325Z,38.90
2023-06-25T02:32:17.539Z,39.30
2023-06-25T02:34:46.133Z,39.50
2023-06-25T02:37:18.135Z,39.40
2023-06-25T02:39:48.442Z,39.30
2023-06-25T02:42:19.731Z,39.30
2023-06-25T02:44:50.699Z,39.20
2023-06-25T02:47:21.271Z,39.40
2023-06-25T02:49:51.605Z,39.80
2023-06-25T02:52:21.787Z,39.60
2023-06-25T02:54:53.364Z,39.30
2023-06-25T02:57:24.608Z,39.50
2023-06-25T02:59:55.597Z,39.80
2023-06-25T03:02:27.159Z,40.00
2023-06-25T03:04:58.196Z,40.20
2023-06-25T03:07:28.841Z,40.00
2023-06-25T03:10:01.205Z,40.70
2023-06-25T03:12:32.086Z,40.70
2023-06-25T03:15:02.121Z,40.30
2023-06-25T03:17:32.211Z,40.20
2023-06-25T03:20:02.220Z,39.90
2023-06-25T03:22:32.031Z,39.80
2023-06-25T03:25:04.009Z,39.90
2023-06-25T03:27:35.810Z,40.30
2023-06-25T03:30:08.195Z,40.40
2023-06-25T03:32:37.152Z,40.30
2023-06-25T03:35:05.945Z,41.00
2023-06-25T03:37:35.722Z,40.80
2023-06-25T03:40:09.865Z,40.90
2023-06-25T03:42:39.946Z,40.80
2023-06-25T03:45:11.271Z,41.00
2023-06-25T03:47:41.614Z,41.00
2023-06-25T03:50:12.134Z,41.00
2023-06-25T03:52:43.510Z,40.60
2023-06-25T03:55:13.366Z,41.20
2023-06-25T03:57:44.831Z,40.90
2023-06-25T04:00:16.325Z,40.60
2023-06-25T04:02:50.648Z,40.50
2023-06-25T04:05:21.676Z,41.10
2023-06-25T04:07:52.269Z,40.60
2023-06-25T04:10:23.642Z,40.10
2023-06-25T04:12:54.846Z,40.50
2023-06-25T04:15:25.904Z,41.00
2023-06-25T04:17:57.029Z,40.60
2023-06-25T04:20:27.433Z,40.30
2023-06-25T04:22:58.934Z,40.20
2023-06-25T04:25:30.837Z,40.00
2023-06-25T04:28:01.925Z,40.10
2023-06-25T04:30:30.477Z,40.00
2023-06-25T04:33:01.873Z,39.90
2023-06-25T04:35:32.718Z,39.90
2023-06-25T04:38:01.496Z,39.90
2023-06-25T04:40:33.393Z,40.00
2023-06-25T04:43:04.415Z,39.60
2023-06-25T04:45:35.523Z,40.30
2023-06-25T04:48:06.060Z,40.20
2023-06-25T04:50:35.150Z,40.00
2023-06-25T04:53:06.328Z,39.50
2023-06-25T04:55:36.941Z,39.90
2023-06-25T04:58:08.413Z,39.40
2023-06-25T05:00:39.100Z,39.50
2023-06-25T05:03:10.463Z,39.50
2023-06-25T05:05:38.957Z,39.60
2023-06-25T05:08:10.267Z,39.90
2023-06-25T05:10:43.055Z,39.90
2023-06-25T05:13:14.451Z,40.00
2023-06-25T05:15:45.634Z,39.80
2023-06-25T05:18:16.842Z,39.70
2023-06-25T05:20:45.408Z,39.60
2023-06-25T05:23:16.496Z,39.40
2023-06-25T05:25:48.936Z,39.90
2023-06-25T05:28:19.975Z,40.10
2023-06-25T05:30:51.090Z,39.30
2023-06-25T05:33:22.034Z,39.20
2023-06-25T05:35:53.273Z,39.30
2023-06-25T05:38:24.292Z,39.20
2023-06-25T05:40:56.652Z,38.90
2023-06-25T05:43:27.650Z,38.90
2023-06-25T05:45:58.690Z,38.60
2023-06-25T05:48:29.722Z,38.80
2023-06-25T05:51:00.742Z,38.30
2023-06-25T05:53:39.979Z,38.50
2023-06-25T05:56:15.779Z,38.50
2023-06-25T05:58:48.206Z,37.20
2023-06-25T06:01:20.137Z,37.40
2023-06-25T06:03:48.627Z,37.60
2023-06-25T06:06:18.781Z,37.30
2023-06-25T06:08:48.581Z,37.40
2023-06-25T06:11:21.058Z,37.60
2023-06-25T06:13:52.067Z,37.40
2023-06-25T06:16:20.734Z,36.90
2023-06-25T06:18:52.083Z,36.90
2023-06-25T06:21:22.221Z,36.70
2023-06-25T06:23:53.255Z,36.80
2023-06-25T06:26:23.547Z,36.50
2023-06-25T06:28:52.027Z,36.80
2023-06-25T06:31:23.634Z,36.60
2023-06-25T06:33:52.026Z,36.40
2023-06-25T06:36:21.801Z,36.30
2023-06-25T06:38:52.155Z,36.20
2023-06-25T06:41:23.509Z,36.20
2023-06-25T06:43:52.020Z,36.40
2023-06-25T06:46:21.753Z,36.20
2023-06-25T06:48:51.996Z,35.60
2023-06-25T06:51:22.036Z,35.20
2023-06-25T06:53:51.592Z,35.20
2023-06-25T06:56:23.518Z,35.40
2023-06-25T06:58:52.144Z,35.40
2023-06-25T07:01:24.817Z,35.50
2023-06-25T07:03:57.496Z,34.40
2023-06-25T07:06:28.622Z,34.60
2023-06-25T07:09:00.229Z,33.90
2023-06-25T07:11:30.820Z,33.20
2023-06-25T07:14:02.130Z,33.60
2023-06-25T07:16:32.357Z,33.90
2023-06-25T07:19:02.673Z,33.60
2023-06-25T07:21:32.148Z,33.20
2023-06-25T07:24:01.033Z,33.30
2023-06-25T07:26:33.463Z,33.10
2023-06-25T07:29:04.511Z,32.40
2023-06-25T07:31:35.533Z,30.80
2023-06-25T07:34:06.645Z,31.70
2023-06-25T07:36:36.651Z,30.90
2023-06-25T07:39:05.906Z,30.90
2023-06-25T07:41:37.246Z,30.90
2023-06-25T07:44:23.548Z,30.90
2023-06-25T07:46:59.989Z,30.70
2023-06-25T07:49:30.988Z,29.60
2023-06-25T07:52:04.419Z,29.60
2023-06-25T07:54:35.517Z,29.90
2023-06-25T07:57:08.394Z,30.10
2023-06-25T08:02:12.265Z,29.00
2023-06-25T08:04:42.114Z,27.90
2023-06-25T08:07:12.361Z,26.70
2023-06-25T08:09:42.801Z,25.90
2023-06-25T08:12:15.999Z,26.00
2023-06-25T08:14:46.532Z,26.80
2023-06-25T08:17:16.446Z,25.40
2023-06-25T08:19:46.238Z,25.20
2023-06-25T08:22:16.188Z,25.10
2023-06-25T08:24:46.236Z,26.10
2023-06-25T08:27:16.598Z,25.70
2023-06-25T08:29:45.321Z,24.40
2023-06-25T08:32:15.196Z,25.30
2023-06-25T08:34:45.333Z,23.80
2023-06-25T08:37:14.060Z,23.40
2023-06-25T08:39:44.331Z,22.70
2023-06-25T08:42:16.852Z,23.80
2023-06-25T08:44:45.286Z,24.20
2023-06-25T08:47:19.799Z,23.70
2023-06-25T08:49:51.988Z,23.40
2023-06-25T08:52:22.931Z,21.90
2023-06-25T08:54:52.974Z,22.10
2023-06-25T08:57:24.043Z,22.10
2023-06-25T08:59:52.086Z,20.70
2023-06-25T09:02:22.702Z,20.40
2023-06-25T09:04:52.037Z,20.50
2023-06-25T09:07:22.121Z,20.00
2023-06-25T09:09:55.381Z,21.00
2023-06-25T09:12:27.144Z,20.30
2023-06-25T09:14:57.754Z,21.00
2023-06-25T09:17:28.910Z,20.40
2023-06-25T09:20:05.948Z,21.20
2023-06-25T09:22:50.002Z,20.00
2023-06-25T09:25:18.942Z,20.70
2023-06-25T09:27:51.312Z,20.60
2023-06-25T09:30:24.589Z,21.10
2023-06-25T09:32:59.705Z,20.10
2023-06-25T09:35:32.231Z,20.70
2023-06-25T09:38:06.205Z,20.40
2023-06-25T09:40:44.201Z,20.60
2023-06-25T09:43:19.214Z,20.30
2023-06-25T09:46:01.607Z,19.30
2023-06-25T09:48:33.446Z,19.60
2023-06-25T09:51:06.720Z,18.70
2023-06-25T09:53:40.898Z,18.40
2023-06-25T09:56:13.214Z,17.20
2023-06-25T09:58:45.672Z,18.10
2023-06-25T10:01:17.508Z,17.60
2023-06-25T10:03:49.252Z,18.60
2023-06-25T10:06:21.012Z,18.70
2023-06-25T10:08:52.731Z,18.10
2023-06-25T10:11:23.749Z,16.40
2023-06-25T10:13:59.564Z,17.60
2023-06-25T10:16:38.865Z,18.20
2023-06-25T10:19:10.142Z,18.50
2023-06-25T10:21:41.182Z,18.10
2023-06-25T10:24:10.084Z,16.40
2023-06-25T10:26:38.504Z,16.50
2023-06-25T10:29:10.370Z,16.50
2023-06-25T10:31:39.330Z,16.70
2023-06-25T10:34:10.601Z,16.60
2023-06-25T10:36:50.808Z,15.90
2023-06-25T10:39:20.280Z,16.60
2023-06-25T10:41:51.363Z,16.30
2023-06-25T10:44:28.508Z,16.60
2023-06-25T10:47:04.808Z,15.70
2023-06-25T10:49:36.463Z,16.30
2023-06-25T10:52:08.414Z,15.20
2023-06-25T10:54:39.495Z,15.80
2023-06-25T10:57:10.524Z,14.80
2023-06-25T10:59:46.824Z,15.00
2023-06-25T11:02:32.302Z,15.60
2023-06-25T11:05:07.754Z,14.50
2023-06-25T11:07:36.887Z,14.30
2023-06-25T11:10:09.511Z,15.20
2023-06-25T11:12:39.378Z,14.50
2023-06-25T11:15:10.526Z,14.10
2023-06-25T11:17:39.891Z,14.20
2023-06-25T11:20:11.885Z,15.50
2023-06-25T11:22:44.397Z,13.60
2023-06-25T11:25:16.407Z,13.70
2023-06-25T11:27:47.573Z,13.70
2023-06-25T11:30:20.084Z,13.20
2023-06-25T11:32:51.513Z,13.80
2023-06-25T11:35:22.732Z,15.10
2023-06-25T11:37:53.500Z,15.10
2023-06-25T11:40:23.895Z,14.60
2023-06-25T11:42:53.855Z,14.40
2023-06-25T11:45:28.714Z,14.50
2023-06-25T11:48:03.185Z,14.40
2023-06-25T11:50:36.962Z,14.50
2023-06-25T11:53:35.096Z,13.30
2023-06-25T11:56:22.454Z,14.00
2023-06-25T11:59:22.932Z,13.30
2023-06-25T12:02:02.946Z,13.20
2023-06-25T12:04:43.184Z,13.00
2023-06-25T12:07:18.106Z,14.20
2023-06-25T12:09:54.486Z,13.50
2023-06-25T12:12:46.289Z,13.50
2023-06-25T12:20:36.789Z,11.50
2023-06-25T12:23:58.484Z,11.30
2023-06-25T12:26:30.598Z,12.10
2023-06-25T12:29:07.196Z,12.60
2023-06-25T12:31:48.919Z,12.70
2023-06-25T12:34:40.574Z,12.50
2023-06-25T12:37:47.084Z,12.50
2023-06-25T12:40:48.010Z,12.10
2023-06-25T12:43:22.078Z,12.30
2023-06-25T12:46:11.478Z,12.00
2023-06-25T12:49:07.768Z,12.30
2023-06-25T12:51:52.782Z,12.00
2023-06-25T12:58:16.305Z,11.70
2023-06-25T13:01:10.580Z,11.30
2023-06-25T13:12:06.456Z,12.60
2023-06-25T13:39:07.321Z,13.00
2023-06-25T13:50:26.544Z,11.90
2023-06-25T13:58:03.188Z,12.00
2023-06-25T14:12:39.272Z,11.20
2023-06-25T14:15:27.797Z,12.10
2023-06-25T14:17:59.166Z,12.50
2023-06-25T14:20:30.432Z,12.90
2023-06-25T14:23:01.042Z,13.00
2023-06-25T14:25:32.110Z,12.80
2023-06-25T14:28:03.681Z,12.60
2023-06-25T14:30:32.210Z,12.40
2023-06-25T14:33:02.218Z,12.40
2023-06-25T14:35:34.729Z,12.30
2023-06-25T14:38:07.933Z,12.30
2023-06-25T14:40:36.876Z,12.40
2023-06-25T14:43:09.333Z,12.00
2023-06-25T14:45:40.597Z,11.30
2023-06-25T14:48:11.698Z,11.40
2023-06-25T14:50:42.801Z,12.00
2023-06-25T14:53:11.343Z,12.10
2023-06-25T14:55:44.579Z,13.10
2023-06-25T14:58:19.275Z,13.00
2023-06-25T15:00:50.471Z,12.30
2023-06-25T15:03:21.587Z,12.70
2023-06-25T15:06:07.049Z,13.10
2023-06-25T15:08:38.885Z,13.40
2023-06-25T15:11:08.844Z,13.10
2023-06-25T15:13:39.860Z,12.10
2023-06-25T15:16:10.547Z,12.20
2023-06-25T15:18:39.722Z,12.80
2023-06-25T15:21:11.160Z,11.80
2023-06-25T15:23:40.077Z,12.80
2023-06-25T15:26:11.116Z,13.20
2023-06-25T15:28:43.415Z,12.50
2023-06-25T15:31:12.297Z,11.70
2023-06-25T15:33:42.089Z,11.40
2023-06-25T15:36:12.238Z,12.20
2023-06-25T15:38:43.380Z,12.40
2023-06-25T15:41:11.662Z,11.90
2023-06-25T15:43:43.378Z,11.50
2023-06-25T15:46:12.307Z,11.30
2023-06-25T15:48:42.041Z,11.80
2023-06-25T15:51:12.064Z,12.90
2023-06-25T15:53:44.366Z,12.70
2023-06-25T15:56:16.405Z,12.30
2023-06-25T15:58:49.908Z,12.30
2023-06-25T16:01:21.273Z,12.70
2023-06-25T16:03:50.013Z,13.00
2023-06-25T16:06:18.414Z,12.00
2023-06-25T16:08:49.715Z,13.00
2023-06-25T16:11:20.773Z,13.30
2023-06-25T16:13:54.505Z,12.60
2023-06-25T16:16:25.595Z,12.20
2023-06-25T16:19:13.756Z,12.30
2023-06-25T16:21:47.696Z,11.30
2023-06-25T16:24:18.829Z,11.10
2023-06-25T16:26:50.032Z,11.30
2023-06-25T16:29:22.595Z,12.10
2023-06-25T16:31:53.055Z,11.80
2023-06-25T16:34:22.463Z,11.90
2023-06-25T16:36:52.134Z,10.90
2023-06-25T16:39:22.082Z,11.10
2023-06-25T16:41:52.352Z,11.00
2023-06-25T16:44:23.438Z,11.20
2023-06-25T16:46:52.397Z,11.60
2023-06-25T16:49:22.071Z,10.90
2023-06-25T16:51:53.674Z,11.40
2023-06-25T16:54:22.073Z,11.20
2023-06-25T16:56:53.024Z,11.50
2023-06-25T16:59:23.595Z,11.40
2023-06-25T17:01:52.190Z,11.90
2023-06-25T17:04:22.209Z,12.30
2023-06-25T17:06:52.869Z,12.60
2023-06-25T17:09:22.215Z,12.40
2023-06-25T17:11:52.144Z,12.20
2023-06-25T17:14:25.196Z,11.80
2023-06-25T17:16:55.279Z,12.70
2023-06-25T17:19:25.858Z,13.20
2023-06-25T17:21:55.745Z,13.20
2023-06-25T17:24:26.815Z,12.50
2023-06-25T17:26:58.484Z,12.80
2023-06-25T17:29:30.313Z,12.50
2023-06-25T17:31:58.924Z,13.20
2023-06-25T17:34:30.202Z,12.70
2023-06-25T17:37:01.691Z,12.50
2023-06-25T17:39:32.263Z,12.40
2023-06-25T17:42:02.385Z,12.80
2023-06-25T17:44:33.574Z,13.20
2023-06-25T17:47:05.074Z,12.90
2023-06-25T17:49:36.355Z,13.00
2023-06-25T17:52:08.405Z,13.60
2023-06-25T17:54:39.464Z,13.90
2023-06-25T17:57:08.901Z,13.80
2023-06-25T17:59:38.923Z,13.70
2023-06-25T18:02:10.510Z,13.60
2023-06-25T18:04:42.481Z,13.40
2023-06-25T18:07:14.838Z,13.70
2023-06-25T18:09:46.170Z,14.20
2023-06-25T18:12:18.090Z,14.50
2023-06-25T18:14:50.063Z,14.70
2023-06-25T18:17:21.121Z,15.50
2023-06-25T18:19:52.367Z,15.50
2023-06-25T18:22:21.189Z,15.50
2023-06-25T18:24:52.233Z,16.10
2023-06-25T18:27:22.068Z,15.80
2023-06-25T18:29:53.402Z,16.10
2023-06-25T18:32:22.346Z,16.00
2023-06-25T18:34:52.090Z,16.30
2023-06-25T18:37:23.031Z,16.30
2023-06-25T18:39:52.111Z,16.70
2023-06-25T18:42:22.057Z,16.90
2023-06-25T18:44:53.546Z,17.40
2023-06-25T18:47:24.843Z,17.40
2023-06-25T18:49:55.285Z,17.70
2023-06-25T18:52:26.584Z,17.80
2023-06-25T18:54:57.796Z,18.10
2023-06-25T18:57:28.859Z,18.70
2023-06-25T18:59:59.001Z,18.50
2023-06-25T19:02:30.008Z,18.70
2023-06-25T19:04:59.148Z,18.90
2023-06-25T19:07:30.450Z,19.20
2023-06-25T19:10:01.984Z,19.10
2023-06-25T19:12:30.730Z,18.90
2023-06-25T19:15:03.745Z,19.20
2023-06-25T19:17:32.947Z,19.50
2023-06-25T19:20:02.334Z,19.70
2023-06-25T19:22:32.139Z,20.10
2023-06-25T19:25:03.964Z,20.10
2023-06-25T19:27:32.209Z,20.10
2023-06-25T19:30:03.571Z,20.40
2023-06-25T19:32:32.137Z,20.30
2023-06-25T19:35:04.506Z,20.90
2023-06-25T19:37:35.564Z,21.10
2023-06-25T19:40:07.789Z,20.90
2023-06-25T19:42:37.714Z,21.40
2023-06-25T19:45:11.453Z,21.60
2023-06-25T19:47:40.918Z,22.00
2023-06-25T19:50:13.223Z,21.50
2023-06-25T19:52:43.443Z,21.90
2023-06-25T19:55:16.519Z,21.60
2023-06-25T19:57:45.521Z,21.00
2023-06-25T20:00:18.269Z,21.60
2023-06-25T20:02:48.948Z,21.30
2023-06-25T20:05:20.415Z,21.60
2023-06-25T20:07:51.692Z,22.00
2023-06-25T20:10:22.366Z,21.90
2023-06-25T20:12:52.117Z,22.30
2023-06-25T20:15:24.728Z,22.50
2023-06-25T20:17:56.139Z,22.90
2023-06-25T20:20:27.436Z,22.40
2023-06-25T20:22:59.820Z,22.80
2023-06-25T20:25:31.169Z,22.90
2023-06-25T20:28:02.135Z,23.10
2023-06-25T20:30:34.393Z,23.20
2023-06-25T20:33:07.468Z,23.20
2023-06-25T20:35:38.182Z,23.60
2023-06-25T20:38:08.991Z,23.80
2023-06-25T20:40:39.251Z,23.50
2023-06-25T20:43:10.282Z,23.70
2023-06-25T20:45:42.089Z,24.00
2023-06-25T20:48:12.075Z,24.00
2023-06-25T20:50:40.973Z,24.00
2023-06-25T20:53:10.724Z,24.50
2023-06-25T20:55:38.978Z,24.60
2023-06-25T20:58:10.139Z,24.60
2023-06-25T21:00:41.002Z,24.90
2023-06-25T21:03:10.085Z,24.80
2023-06-25T21:05:39.921Z,25.10
2023-06-25T21:08:09.091Z,25.00
2023-06-25T21:10:38.532Z,25.00
2023-06-25T21:13:08.864Z,24.90
2023-06-25T21:15:41.382Z,25.30
2023-06-25T21:18:12.281Z,25.60
2023-06-25T21:20:43.405Z,25.90
2023-06-25T21:23:14.752Z,25.90
2023-06-25T21:25:45.435Z,25.70
2023-06-25T21:28:16.751Z,25.90
2023-06-25T21:30:49.491Z,26.10
2023-06-25T21:33:18.827Z,26.00
2023-06-25T21:35:50.001Z,25.80
2023-06-25T21:38:21.306Z,25.70
2023-06-25T21:40:52.122Z,26.00
2023-06-25T21:43:22.064Z,27.00
2023-06-25T21:45:53.442Z,27.10
2023-06-25T21:48:22.341Z,27.20
2023-06-25T21:50:58.297Z,27.10
2023-06-25T21:53:28.765Z,27.50
2023-06-25T21:55:59.830Z,27.50
2023-06-25T21:58:31.036Z,27.80
2023-06-25T22:01:03.096Z,27.30
2023-06-25T22:03:32.073Z,27.50
2023-06-25T22:06:02.136Z,28.40
2023-06-25T22:08:33.313Z,27.90
2023-06-25T22:11:02.426Z,28.40
2023-06-25T22:13:31.261Z,27.70
2023-06-25T22:16:00.281Z,28.10
2023-06-25T22:18:33.496Z,28.70
2023-06-25T22:21:06.063Z,28.80
2023-06-25T22:23:36.718Z,28.60
2023-06-25T22:26:07.983Z,28.70
2023-06-25T22:28:36.205Z,28.90
2023-06-25T22:31:07.245Z,28.80
2023-06-25T22:33:38.048Z,28.90
2023-06-25T22:36:08.012Z,29.50
2023-06-25T22:38:37.019Z,29.70
2023-06-25T22:45:13.683Z,29.30
2023-06-25T22:48:06.049Z,29.20
2023-06-25T22:50:38.600Z,29.30
2023-06-25T22:53:10.817Z,29.60
2023-06-25T22:55:40.508Z,29.40
2023-06-25T22:58:13.463Z,29.80
2023-06-25T23:00:44.736Z,29.80
2023-06-25T23:03:15.392Z,30.00
2023-06-25T23:05:48.247Z,30.20
2023-06-25T23:08:19.542Z,30.90
2023-06-25T23:10:50.872Z,31.00
2023-06-25T23:13:21.027Z,31.00
2023-06-25T23:15:52.291Z,30.80
2023-06-25T23:18:22.036Z,30.60
2023-06-25T23:20:53.550Z,30.50
2023-06-25T23:23:22.067Z,30.60
2023-06-25T23:25:52.052Z,30.60
2023-06-25T23:28:22.107Z,31.10
2023-06-25T23:30:52.254Z,30.90
2023-06-25T23:33:22.061Z,30.90
2023-06-25T23:35:53.423Z,31.40
2023-06-25T23:38:22.051Z,30.80
2023-06-25T23:40:52.351Z,31.50
2023-06-25T23:43:22.070Z,31.30
2023-06-25T23:45:52.420Z,30.90
2023-06-25T23:48:21.782Z,31.30
2023-06-25T23:50:58.585Z,31.80
2023-06-25T23:53:29.764Z,31.60
2023-06-25T23:56:00.949Z,32.40
2023-06-25T23:58:30.646Z,32.40
